Sunday, May 27, 2018, 5:42 AM EDT

KLKU, Louisa, Louisa County Airport/freeman Field

Location: Louisa, VA, United States Lat: 38.01
Local Time: 5:42 AM EDT ( 9:42 GMT) Lon: -77.97
Time Zone: US/Eastern Elev: 492 ft

Show me the last for .
Show Decoded

2018-05-27 05:15 METAR KLKU 270915Z AUTO 23004KT 10SM OVC008 21/21 A2994 RMK AO2 T02130207 =
2018-05-27 04:55 METAR KLKU 270855Z AUTO 22005KT 10SM OVC008 21/21 A2994 RMK AO2 T02130207 =
2018-05-27 04:35 METAR KLKU 270835Z AUTO 20005KT 10SM OVC008 21/21 A2994 RMK AO2 T02130208 =
2018-05-27 04:15 METAR KLKU 270815Z AUTO 21004KT 10SM OVC008 21/21 A2994 RMK AO2 T02130208 =
2018-05-27 03:55 METAR KLKU 270755Z AUTO 22004KT 10SM BKN008 BKN120 21/21 A2994 RMK AO2 T02120207
                 =
2018-05-27 03:35 METAR KLKU 270735Z AUTO 21005KT 10SM BKN008 21/21 A2994 RMK AO2 T02120207 =
2018-05-27 03:15 METAR KLKU 270715Z AUTO 19004KT 10SM BKN008 21/21 A2993 RMK AO2 T02120208 =
2018-05-27 02:55 METAR KLKU 270655Z AUTO 20004KT 10SM CLR 21/21 A2993 RMK AO2 T02120208 =
2018-05-27 02:35 METAR KLKU 270635Z AUTO 19003KT 10SM SCT015 21/21 A2993 RMK AO2 T02130209 =
2018-05-27 02:15 METAR KLKU 270615Z AUTO 19004KT 10SM OVC013 21/21 A2993 RMK AO2 LTG DSNT S
                 T02150209 =
2018-05-27 01:55 METAR KLKU 270555Z AUTO 19003KT 10SM OVC011 22/21 A2994 RMK AO2 LTG DSNT S
                 T02170212 10224 20205 60001 =
2018-05-27 01:35 METAR KLKU 270535Z AUTO 20003KT 10SM OVC009 22/21 A2995 RMK AO2 LTG DSNT N
                 T02180213 =
2018-05-27 01:15 METAR KLKU 270515Z AUTO 18003KT 10SM BKN009 BKN120 22/21 A2994 RMK AO2 T02170213
                 =
2018-05-27 00:55 METAR KLKU 270455Z AUTO 00000KT 10SM SCT009 BKN120 21/21 A2994 RMK AO2 LTG DSNT
                 S T02130210 =
2018-05-27 00:35 METAR KLKU 270435Z AUTO 00000KT 10SM VCTS SCT009 BKN120 21/21 A2994 RMK AO2 LTG
                 DSNT S T02130211 =
2018-05-27 00:15 METAR KLKU 270415Z AUTO 00000KT 5SM BR SCT010 BKN120 21/20 A2994 RMK AO2
                 T02060204 =
2018-05-26 23:55 METAR KLKU 270355Z AUTO 00000KT 7SM SCT011 BKN120 21/21 A2995 RMK AO2 T02110208
                 =
2018-05-26 23:35 METAR KLKU 270335Z AUTO 00000KT 10SM SCT011 SCT021 SCT120 22/21 A2995 RMK AO2
                 T02190212 =
2018-05-26 23:15 METAR KLKU 270315Z AUTO 20003KT 10SM SCT120 22/21 A2995 RMK AO2 =
2018-05-26 22:55 METAR KLKU 270255Z AUTO 00000KT 10SM CLR 22/21 A2995 RMK AO2 P0001 T02160211
                 60001 =
2018-05-26 22:35 METAR KLKU 270235Z AUTO 21003KT 10SM CLR 22/21 A2995 RMK AO2 P0001 T02170210 =
2018-05-26 22:15 METAR KLKU 270215Z AUTO 19003KT 10SM CLR 21/21 A2995 RMK AO2 T02140209 =
2018-05-26 21:55 METAR KLKU 270155Z AUTO 21003KT 10SM SCT120 22/21 A2995 RMK AO2 T02180210 =
2018-05-26 21:35 METAR KLKU 270135Z AUTO 00000KT 10SM SCT120 22/21 A2994 RMK AO2 T02200211 =
2018-05-26 21:15 METAR KLKU 270115Z AUTO 21003KT 10SM CLR 22/21 A2994 RMK AO2 T02190211 =
2018-05-26 20:55 METAR KLKU 270055Z AUTO 00000KT 10SM CLR 22/21 A2993 RMK AO2 LTG DSNT SW
                 T02200211 =
2018-05-26 20:35 METAR KLKU 270035Z AUTO 18003KT 10SM CLR 22/21 A2993 RMK AO2 T02200212 =
2018-05-26 20:15 METAR KLKU 270015Z AUTO 00000KT 10SM CLR 22/21 A2992 RMK AO2 LTG DSNT SW
                 T02220213 =
2018-05-26 19:55 METAR KLKU 262355Z AUTO 21004KT 10SM SCT075 SCT100 BKN120 22/21 A2992 RMK AO2
                 T02230214 10293 20223 402930199 60010 =
2018-05-26 19:35 METAR KLKU 262335Z AUTO 16004KT 10SM -RA SCT048 SCT070 BKN120 22/22 A2992 RMK
                 AO2 T02240215 =
2018-05-26 19:15 METAR KLKU 262315Z AUTO 16003KT 10SM -RA BKN110 22/22 A2992 RMK AO2 LTG DSNT NE
                 AND S T02240216 =
2018-05-26 18:55 METAR KLKU 262255Z AUTO 00000KT 10SM -RA SCT075 OVC110 22/21 A2992 RMK AO2 LTG
                 DSNT NE THRU S P0001 T02240213 =
2018-05-26 18:35 METAR KLKU 262235Z AUTO 00000KT 10SM SCT075 SCT095 OVC110 22/22 A2993 RMK AO2
                 LTG DSNT NE THRU S P0001 T02250216 =
2018-05-26 18:15 METAR KLKU 262215Z AUTO 00000KT 10SM -VCTSRA SCT060 SCT080 BKN110 23/21 A2993
                 RMK AO2 LTG DSNT N THRU S T02250212 =
2018-05-26 17:55 METAR KLKU 262155Z AUTO 24004KT 10SM VCTS SCT027 SCT042 BKN055 23/21 A2992 RMK
                 AO2 LTG DSNT N THRU E P0009 T02260212 =
2018-05-26 17:35 METAR KLKU 262135Z AUTO 20006G16KT 2 1/2SM +VCTSRA BR SCT032 BKN042 OVC065 23/22
                 A2992 RMK AO2 LTG DSNT N NE AND S P0009 T02320216 =
2018-05-26 17:15 METAR KLKU 262115Z AUTO 20007KT 10SM VCTS SCT038 BKN045 OVC060 27/21 A2990 RMK
                 AO2 LTG DSNT N AND NW T02680211 =
2018-05-26 16:55 METAR KLKU 262055Z AUTO 20006KT 10SM VCTS SCT039 BKN046 BKN050 27/21 A2990 RMK
                 AO2 LTG DSNT N NE AND SW T02740207 =
2018-05-26 16:35 METAR KLKU 262035Z AUTO 19007KT 170V230 10SM VCTS SCT037 SCT046 SCT050 28/21
                 A2989 RMK AO2 LTG DSNT N AND S T02840213 =
2018-05-26 16:15 METAR KLKU 262015Z AUTO 21007G14KT 10SM CLR 29/21 A2989 RMK AO2 LTG DSNT W
                 T02880213 =
2018-05-26 15:55 METAR KLKU 261955Z AUTO 19008KT 170V230 10SM CLR 28/22 A2990 RMK AO2 LTG DSNT N
                 T02780217 =
2018-05-26 15:35 METAR KLKU 261935Z AUTO 20005KT 10SM SCT033 SCT040 SCT080 28/22 A2990 RMK AO2
                 LTG DSNT N T02800216 =
2018-05-26 15:15 METAR KLKU 261915Z AUTO 22005KT 10SM SCT033 BKN042 BKN060 28/22 A2991 RMK AO2
                 T02780218 =
2018-05-26 14:55 METAR KLKU 261855Z AUTO 21006KT 10SM SCT032 SCT041 28/21 A2991 RMK AO2 LTG DSNT
                 SW THRU N T02800214 =
2018-05-26 14:35 METAR KLKU 261835Z AUTO 20006KT 10SM SCT032 SCT039 29/22 A2991 RMK AO2 LTG DSNT
                 N AND W T02910216 =
2018-05-26 14:15 METAR KLKU 261815Z AUTO 17009KT 10SM SCT030 SCT035 29/21 A2991 RMK AO2 LTG DSNT
                 N AND SW T02890215 =
2018-05-26 13:55 METAR KLKU 261755Z AUTO 19005KT 10SM SCT028 28/22 A2992 RMK AO2 LTG DSNT N
                 T02800216 10284 20226 =
2018-05-26 13:35 METAR KLKU 261735Z AUTO 20005KT 10SM SCT028 28/21 A2993 RMK AO2 T02790213 =
2018-05-26 13:15 METAR KLKU 261715Z AUTO 18006KT 10SM SCT028 28/21 A2994 RMK AO2 T02780213 =
2018-05-26 12:55 METAR KLKU 261655Z AUTO 25007KT 210V280 10SM CLR 28/21 A2995 RMK AO2 T02760209 =
2018-05-26 12:35 METAR KLKU 261635Z AUTO 23008KT 190V260 10SM CLR 27/20 A2995 RMK AO2 T02740203 =
2018-05-26 12:15 METAR KLKU 261615Z AUTO 22009G14KT 160V230 10SM CLR 27/20 A2996 RMK AO2
                 T02690203 =
2018-05-26 11:55 METAR KLKU 261555Z AUTO 23005KT 10SM CLR 27/21 A2996 RMK AO2 T02700210 =
2018-05-26 11:35 METAR KLKU 261535Z AUTO 23006KT 10SM CLR 26/21 A2997 RMK AO2 T02590206 =
2018-05-26 11:15 METAR KLKU 261515Z AUTO 19009KT 10SM CLR 26/21 A2997 RMK AO2 T02620206 =
2018-05-26 10:55 METAR KLKU 261455Z AUTO 21008G15KT 10SM CLR 25/20 A2997 RMK AO2 T02540201 =
2018-05-26 10:35 METAR KLKU 261435Z AUTO 22006KT 10SM CLR 25/21 A2997 RMK AO2 T02550206 =
2018-05-26 10:15 METAR KLKU 261415Z AUTO 21005KT 10SM CLR 25/21 A2997 RMK AO2 T02510206 =
2018-05-26 09:55 METAR KLKU 261355Z AUTO 23007KT 180V250 10SM CLR 25/20 A2997 RMK AO2 T02470201 =
2018-05-26 09:35 METAR KLKU 261335Z AUTO 21006KT 10SM CLR 24/20 A2997 RMK AO2 T02450201 =
2018-05-26 09:15 METAR KLKU 261315Z AUTO 20007KT 10SM CLR 25/20 A2996 RMK AO2 T02460198 =
2018-05-26 08:55 METAR KLKU 261255Z AUTO 21004KT 10SM SCT120 24/20 A2996 RMK AO2 T02390198 =
2018-05-26 08:35 METAR KLKU 261235Z AUTO 22010KT 190V250 10SM SCT120 23/20 A2997 RMK AO2
                 T02330196 =
2018-05-26 08:15 METAR KLKU 261215Z AUTO 22008KT 10SM CLR 23/19 A2996 RMK AO2 T02290195 =
2018-05-26 07:55 METAR KLKU 261155Z AUTO 23008KT 180V260 10SM CLR 23/19 A2996 RMK AO2 T02250194
                 10226 20199 =
2018-05-26 07:35 METAR KLKU 261135Z AUTO 20006KT 10SM SCT110 22/19 A2996 RMK AO2 T02170192 =
2018-05-26 07:15 METAR KLKU 261115Z AUTO 21005KT 10SM SCT110 21/19 A2996 RMK AO2 T02140192 =
2018-05-26 06:55 METAR KLKU 261055Z AUTO 21005KT 10SM CLR 21/19 A2996 RMK AO2 T02080190 =
2018-05-26 06:35 METAR KLKU 261035Z AUTO 21005KT 10SM CLR 20/19 A2996 RMK AO2 T02030188 =
2018-05-26 06:15 METAR KLKU 261015Z AUTO 21005KT 10SM CLR 20/19 A2996 RMK AO2 T02000187 =
2018-05-26 05:55 METAR KLKU 260955Z AUTO 19005KT 10SM CLR 20/19 A2995 RMK AO2 T01990187 =

Support USWX by starting your Amazon purchase here.